createdAt,value
2023-02-19T00:01:39.234Z,34.03
2023-02-19T00:04:18.170Z,34.75
2023-02-19T00:06:46.573Z,43.35
2023-02-19T00:09:15.427Z,37.97
2023-02-19T00:11:43.080Z,41.00
2023-02-19T00:14:15.275Z,43.53
2023-02-19T00:16:42.193Z,37.57
2023-02-19T00:19:13.619Z,45.73
2023-02-19T00:21:40.490Z,39.43
2023-02-19T00:24:08.248Z,40.47
2023-02-19T00:26:35.605Z,47.40
2023-02-19T00:29:02.951Z,55.17
2023-02-19T00:31:34.964Z,49.53
2023-02-19T00:34:05.228Z,47.90
2023-02-19T00:36:36.147Z,55.70
2023-02-19T00:39:04.969Z,50.10
2023-02-19T00:41:32.141Z,42.53
2023-02-19T00:44:04.422Z,37.23
2023-02-19T00:46:34.501Z,45.23
2023-02-19T00:49:04.166Z,39.10
2023-02-19T00:51:33.732Z,43.00
2023-02-19T00:56:27.535Z,31.60
2023-02-19T00:58:54.502Z,30.03
2023-02-19T01:01:21.625Z,36.00
2023-02-19T01:03:49.174Z,37.53
2023-02-19T01:06:18.269Z,37.40
2023-02-19T01:08:45.660Z,35.80
2023-02-19T01:11:13.755Z,32.20
2023-02-19T01:13:41.370Z,34.23
2023-02-19T01:16:15.161Z,31.13
2023-02-19T01:18:43.229Z,33.73
2023-02-19T01:21:20.968Z,30.30
2023-02-19T01:23:49.592Z,27.43
2023-02-19T01:26:19.725Z,24.23
2023-02-19T01:28:48.526Z,24.40
2023-02-19T01:31:19.109Z,19.55
2023-02-19T01:33:47.447Z,26.23
2023-02-19T01:36:14.860Z,25.33
2023-02-19T01:38:42.129Z,20.17
2023-02-19T01:41:12.969Z,24.33
2023-02-19T01:44:08.119Z,21.23
2023-02-19T01:46:38.286Z,23.40
2023-02-19T01:51:43.766Z,19.73
2023-02-19T01:54:14.136Z,28.17
2023-02-19T01:56:44.174Z,24.93
2023-02-19T01:59:12.890Z,22.77
2023-02-19T02:01:41.270Z,17.80
2023-02-19T02:04:11.196Z,20.13
2023-02-19T02:06:49.999Z,18.80
2023-02-19T02:09:37.996Z,23.27
2023-02-19T02:12:05.174Z,19.93
2023-02-19T02:14:36.616Z,16.07
2023-02-19T02:17:38.539Z,17.77
2023-02-19T02:20:27.955Z,22.13
2023-02-19T02:23:29.377Z,15.70
2023-02-19T02:26:04.721Z,15.43
2023-02-19T02:28:40.709Z,16.77
2023-02-19T02:31:11.504Z,21.10
2023-02-19T02:33:47.824Z,17.37
2023-02-19T02:36:40.380Z,15.57
2023-02-19T02:39:13.036Z,14.57
2023-02-19T02:41:46.036Z,18.87
2023-02-19T02:44:13.313Z,13.37
2023-02-19T02:46:45.145Z,16.93
2023-02-19T02:49:20.454Z,17.93
2023-02-19T02:51:52.278Z,20.97
2023-02-19T02:54:51.964Z,16.77
2023-02-19T02:57:21.571Z,16.67
2023-02-19T02:59:56.657Z,15.87
2023-02-19T03:02:28.786Z,20.55
2023-02-19T03:05:47.476Z,17.13
2023-02-19T03:08:20.840Z,17.10
2023-02-19T03:10:55.513Z,22.17
2023-02-19T03:13:47.462Z,20.80
2023-02-19T03:16:48.038Z,22.13
2023-02-19T03:19:21.423Z,25.73
2023-02-19T03:21:59.971Z,26.50
2023-02-19T03:25:10.721Z,28.90
2023-02-19T03:27:41.871Z,24.90
2023-02-19T03:30:18.627Z,27.90
2023-02-19T03:33:14.593Z,23.70
2023-02-19T03:36:05.539Z,26.90
2023-02-19T03:38:46.626Z,23.03
2023-02-19T03:41:26.611Z,26.67
2023-02-19T03:44:08.601Z,26.57
2023-02-19T03:46:39.634Z,26.03
2023-02-19T03:49:19.151Z,26.70
2023-02-19T03:51:53.977Z,26.20
2023-02-19T03:54:26.404Z,26.20
2023-02-19T03:57:04.129Z,29.23
2023-02-19T03:59:38.633Z,23.03
2023-02-19T04:02:23.888Z,16.53
2023-02-19T04:04:59.277Z,15.73
2023-02-19T04:07:28.383Z,14.27
2023-02-19T04:09:55.674Z,17.88
2023-02-19T04:12:24.529Z,10.07
2023-02-19T04:15:00.231Z,9.37
2023-02-19T04:17:32.424Z,13.07
2023-02-19T04:20:02.274Z,9.17
2023-02-19T04:22:29.766Z,8.27
2023-02-19T04:24:56.930Z,7.60
2023-02-19T04:27:23.743Z,6.80
2023-02-19T04:29:50.531Z,7.30
2023-02-19T04:32:17.436Z,4.87
2023-02-19T04:34:44.450Z,5.37
2023-02-19T04:37:11.567Z,4.13
2023-02-19T04:39:38.334Z,8.83
2023-02-19T04:42:05.611Z,8.10
2023-02-19T04:44:34.612Z,7.10
2023-02-19T04:47:01.706Z,5.75
2023-02-19T04:49:28.755Z,4.03
2023-02-19T04:51:55.585Z,4.83
2023-02-19T05:59:26.750Z,15.47
2023-02-19T06:01:55.464Z,13.75
2023-02-19T06:04:23.612Z,13.45
2023-02-19T06:06:50.967Z,13.77
2023-02-19T06:09:17.940Z,9.03
2023-02-19T06:11:45.343Z,9.70
2023-02-19T06:14:15.158Z,11.53
2023-02-19T06:16:42.538Z,13.60
2023-02-19T06:19:10.036Z,9.70
2023-02-19T06:21:37.122Z,10.10
2023-02-19T06:24:08.522Z,10.87
2023-02-19T06:26:35.897Z,13.20
2023-02-19T06:29:02.798Z,10.93
2023-02-19T06:31:29.853Z,13.27
2023-02-19T06:33:56.821Z,10.57
2023-02-19T06:36:25.322Z,9.03
2023-02-19T06:38:52.414Z,9.50
2023-02-19T06:41:19.457Z,10.83
2023-02-19T06:43:46.806Z,11.88
2023-02-19T06:46:14.250Z,11.00
2023-02-19T06:48:42.908Z,11.45
2023-02-19T06:51:13.387Z,7.75
2023-02-19T07:30:35.711Z,12.17
2023-02-19T07:33:02.886Z,9.10
2023-02-19T07:35:29.744Z,9.37
2023-02-19T07:37:56.668Z,9.17
2023-02-19T07:40:23.496Z,7.90
2023-02-19T07:42:50.400Z,8.30
2023-02-19T07:45:17.524Z,12.10
2023-02-19T07:47:47.586Z,13.77
2023-02-19T07:50:17.604Z,10.73
2023-02-19T07:52:44.430Z,7.88
2023-02-19T07:55:11.376Z,6.90
2023-02-19T07:57:38.246Z,6.78
2023-02-19T08:00:05.458Z,8.82
2023-02-19T08:02:57.618Z,7.65
2023-02-19T08:05:24.705Z,7.32
2023-02-19T08:07:51.882Z,6.35
2023-02-19T08:10:37.276Z,8.13
2023-02-19T08:13:19.501Z,8.98
2023-02-19T08:15:47.155Z,8.55
2023-02-19T08:18:15.347Z,7.22
2023-02-19T08:20:43.045Z,11.30
2023-02-19T08:23:10.636Z,7.30
2023-02-19T08:25:38.839Z,6.80
2023-02-19T08:28:07.183Z,7.55
2023-02-19T08:30:35.227Z,5.90
2023-02-19T08:33:02.626Z,6.22
2023-02-19T08:35:29.831Z,6.78
2023-02-19T08:37:59.664Z,7.65
2023-02-19T08:40:26.745Z,5.65
2023-02-19T08:42:53.674Z,7.28
2023-02-19T08:45:20.539Z,6.38
2023-02-19T08:47:47.553Z,6.93
2023-02-19T08:50:14.406Z,4.07
2023-02-19T08:52:41.299Z,4.40
2023-02-19T08:55:08.725Z,5.00
2023-02-19T08:57:37.784Z,5.30
2023-02-19T09:00:06.787Z,5.18
2023-02-19T09:02:33.786Z,4.70
2023-02-19T09:05:01.040Z,5.50
2023-02-19T09:07:28.574Z,7.35
2023-02-19T09:09:55.558Z,6.63
2023-02-19T09:12:23.688Z,3.42
2023-02-19T09:14:53.297Z,3.87
2023-02-19T09:17:20.154Z,5.43
2023-02-19T09:19:48.944Z,4.03
2023-02-19T09:22:17.203Z,5.10
2023-02-19T09:24:44.819Z,4.10
2023-02-19T09:27:19.478Z,3.88
2023-02-19T09:29:47.226Z,2.55
2023-02-19T09:32:14.756Z,4.50
2023-02-19T09:34:41.902Z,5.18
2023-02-19T09:37:08.925Z,3.65
2023-02-19T09:39:36.053Z,6.43
2023-02-19T09:42:33.189Z,4.07
2023-02-19T09:45:02.001Z,3.75
2023-02-19T09:47:31.558Z,6.47
2023-02-19T09:50:09.881Z,5.28
2023-02-19T09:52:36.663Z,5.93
2023-02-19T09:55:14.567Z,7.60
2023-02-19T09:57:43.212Z,3.88
2023-02-19T10:00:24.108Z,5.47
2023-02-19T10:03:22.056Z,4.13
2023-02-19T10:05:49.093Z,4.60
2023-02-19T10:08:20.658Z,5.22
2023-02-19T10:10:47.567Z,5.75
2023-02-19T10:13:29.832Z,3.70
2023-02-19T10:15:59.225Z,7.32
2023-02-19T10:18:29.563Z,5.60
2023-02-19T10:20:57.922Z,4.53
2023-02-19T10:23:26.128Z,4.65
2023-02-19T10:25:57.350Z,5.77
2023-02-19T10:28:30.197Z,5.65
2023-02-19T10:30:59.585Z,3.47
2023-02-19T10:33:26.966Z,7.32
2023-02-19T10:36:03.913Z,4.82
2023-02-19T10:38:34.473Z,2.88
2023-02-19T10:41:27.869Z,5.68
2023-02-19T10:43:56.370Z,4.28
2023-02-19T10:46:27.022Z,4.45
2023-02-19T10:49:04.148Z,4.05
2023-02-19T10:51:36.482Z,5.35
2023-02-19T10:54:29.237Z,6.68
2023-02-19T10:57:25.573Z,6.40
2023-02-19T10:59:58.918Z,5.90
2023-02-19T11:02:27.367Z,4.78
2023-02-19T11:05:09.538Z,2.97
2023-02-19T11:07:37.701Z,4.40
2023-02-19T11:10:07.343Z,4.72
2023-02-19T11:12:35.436Z,3.78
2023-02-19T11:15:25.483Z,4.43
2023-02-19T11:17:56.710Z,4.50
2023-02-19T11:20:24.375Z,3.67
2023-02-19T11:22:51.716Z,4.38
2023-02-19T11:25:21.084Z,3.20
2023-02-19T11:27:58.319Z,6.50
2023-02-19T11:30:36.014Z,3.00
2023-02-19T11:33:22.278Z,3.58
2023-02-19T11:35:55.565Z,3.65
2023-02-19T11:38:22.619Z,4.32
2023-02-19T11:40:59.628Z,4.45
2023-02-19T11:43:45.159Z,6.20
2023-02-19T11:46:34.955Z,3.70
2023-02-19T11:49:01.978Z,4.93
2023-02-19T11:51:31.986Z,4.30
2023-02-19T11:54:29.536Z,3.78
2023-02-19T11:57:15.096Z,3.83
2023-02-19T11:59:53.123Z,5.55
2023-02-19T12:02:28.708Z,5.00
2023-02-19T12:05:08.449Z,5.80
2023-02-19T12:07:47.317Z,5.30
2023-02-19T12:13:02.217Z,3.38
2023-02-19T12:16:13.638Z,4.32
2023-02-19T12:19:25.368Z,2.47
2023-02-19T12:22:12.231Z,3.30
2023-02-19T12:25:08.174Z,3.22
2023-02-19T12:27:43.887Z,3.45
2023-02-19T12:30:32.059Z,4.50
2023-02-19T12:33:03.339Z,6.47
2023-02-19T12:35:46.600Z,2.22
2023-02-19T12:38:25.228Z,3.97
2023-02-19T12:41:41.440Z,3.40
2023-02-19T12:44:20.291Z,3.28
2023-02-19T12:49:42.528Z,3.63
2023-02-19T12:52:20.744Z,1.73
2023-02-19T12:54:58.137Z,3.30
2023-02-19T12:57:29.963Z,2.78
2023-02-19T13:00:39.586Z,14.52
2023-02-19T13:03:21.176Z,3.63
2023-02-19T13:06:07.620Z,3.28
2023-02-19T13:08:53.022Z,3.47
2023-02-19T13:11:57.047Z,3.03
2023-02-19T13:14:46.713Z,2.28
2023-02-19T13:17:44.073Z,2.10
2023-02-19T13:20:25.068Z,4.22
2023-02-19T13:23:16.733Z,4.50
2023-02-19T13:26:05.088Z,5.20
2023-02-19T13:28:45.382Z,3.92
2023-02-19T13:31:54.375Z,7.55
2023-02-19T13:34:27.029Z,10.05
2023-02-19T13:36:55.577Z,2.42
2023-02-19T13:39:23.506Z,3.63
2023-02-19T13:41:53.471Z,8.73
2023-02-19T13:44:29.022Z,2.08
2023-02-19T13:46:56.713Z,5.55
2023-02-19T13:49:36.823Z,5.57
2023-02-19T13:52:29.680Z,3.75
2023-02-19T13:55:34.433Z,4.63
2023-02-19T13:58:52.282Z,7.80
2023-02-19T14:01:19.535Z,2.90
2023-02-19T14:03:53.654Z,4.93
2023-02-19T14:06:20.945Z,3.88
2023-02-19T14:08:53.580Z,3.58
2023-02-19T14:11:43.047Z,4.78
2023-02-19T14:14:24.960Z,4.30
2023-02-19T14:16:56.139Z,4.80
2023-02-19T14:19:43.381Z,3.92
2023-02-19T14:22:55.669Z,6.68
2023-02-19T14:25:31.969Z,4.38
2023-02-19T14:28:12.091Z,5.85
2023-02-19T14:30:59.214Z,2.58
2023-02-19T14:33:29.660Z,4.93
2023-02-19T14:36:16.955Z,5.20
2023-02-19T14:38:58.290Z,5.75
2023-02-19T14:41:27.412Z,4.25
2023-02-19T14:43:58.648Z,5.10
2023-02-19T14:46:32.644Z,8.43
2023-02-19T14:49:21.792Z,6.38
2023-02-19T14:51:53.986Z,4.13
2023-02-19T14:54:48.440Z,8.60
2023-02-19T14:57:22.276Z,5.53
2023-02-19T14:59:55.270Z,6.03
2023-02-19T15:02:24.117Z,5.30
2023-02-19T15:07:36.529Z,4.50
2023-02-19T15:10:05.965Z,8.80
2023-02-19T15:12:46.166Z,10.90
2023-02-19T15:15:22.397Z,6.53
2023-02-19T15:17:51.096Z,5.32
2023-02-19T15:20:24.672Z,8.40
2023-02-19T15:22:53.126Z,6.15
2023-02-19T15:25:22.520Z,8.07
2023-02-19T15:27:49.937Z,6.50
2023-02-19T15:30:24.702Z,8.52
2023-02-19T15:32:54.527Z,7.22
2023-02-19T15:35:23.406Z,11.05
2023-02-19T15:37:51.732Z,7.68
2023-02-19T15:40:20.430Z,9.80
2023-02-19T15:42:47.900Z,6.68
2023-02-19T15:45:23.905Z,8.90
2023-02-19T15:48:11.006Z,8.95
2023-02-19T15:50:44.471Z,10.07
2023-02-19T15:53:22.051Z,8.43
2023-02-19T15:55:57.878Z,11.30
2023-02-19T15:58:33.140Z,10.07
2023-02-19T16:01:04.253Z,16.15
2023-02-19T16:03:32.253Z,11.90
2023-02-19T16:06:04.427Z,5.72
2023-02-19T16:08:38.505Z,8.02
2023-02-19T16:11:23.560Z,8.88
2023-02-19T16:13:51.196Z,11.07
2023-02-19T16:16:31.685Z,12.90
2023-02-19T16:18:58.670Z,16.95
2023-02-19T16:21:27.861Z,13.38
2023-02-19T16:26:39.376Z,14.45
2023-02-19T16:29:21.845Z,14.75
2023-02-19T16:31:54.825Z,15.18
2023-02-19T16:34:41.506Z,21.42
2023-02-19T16:37:34.585Z,23.40
2023-02-19T16:40:07.671Z,8.25
2023-02-19T16:43:06.898Z,10.68
2023-02-19T16:45:33.935Z,11.73
2023-02-19T16:48:00.872Z,13.20
2023-02-19T16:50:27.893Z,13.43
2023-02-19T16:52:57.172Z,15.38
2023-02-19T16:57:51.182Z,11.02
2023-02-19T17:00:24.061Z,10.40
2023-02-19T17:02:57.300Z,10.48
2023-02-19T17:05:26.556Z,18.27
2023-02-19T17:10:25.837Z,13.05
2023-02-19T17:12:54.384Z,15.98
2023-02-19T17:15:22.399Z,12.77
2023-02-19T17:17:49.685Z,10.02
2023-02-19T17:20:16.547Z,13.73
2023-02-19T17:22:44.408Z,17.13
2023-02-19T17:25:11.431Z,22.77
2023-02-19T17:27:38.269Z,16.50
2023-02-19T17:30:14.166Z,15.48
2023-02-19T17:32:41.182Z,14.10
2023-02-19T17:35:08.506Z,9.88
2023-02-19T17:37:51.855Z,8.60
2023-02-19T17:40:32.860Z,7.38
2023-02-19T17:43:00.693Z,8.73
2023-02-19T17:45:27.684Z,5.78
2023-02-19T17:47:54.614Z,7.72
2023-02-19T17:50:26.624Z,10.48
2023-02-19T17:52:53.677Z,14.15
2023-02-19T17:55:20.684Z,16.08
2023-02-19T17:57:49.069Z,20.63
2023-02-19T18:00:19.397Z,11.20
2023-02-19T18:02:46.320Z,13.95
2023-02-19T18:05:13.437Z,10.82
2023-02-19T18:07:40.766Z,11.68
2023-02-19T18:10:08.591Z,14.18
2023-02-19T18:12:35.866Z,18.90
2023-02-19T18:15:02.743Z,13.70
2023-02-19T18:17:29.660Z,14.38
2023-02-19T18:19:56.667Z,13.45
2023-02-19T18:22:23.552Z,16.27
2023-02-19T18:24:54.056Z,10.43
2023-02-19T18:27:20.889Z,14.73
2023-02-19T18:29:55.727Z,16.80
2023-02-19T18:32:24.769Z,9.55
2023-02-19T18:34:53.674Z,10.02
2023-02-19T18:37:21.901Z,10.43
2023-02-19T18:39:48.890Z,11.75
2023-02-19T18:42:16.101Z,11.77
2023-02-19T18:44:43.509Z,20.88
2023-02-19T18:47:11.645Z,17.40
2023-02-19T18:49:38.578Z,15.02
2023-02-19T18:52:05.924Z,19.58
2023-02-19T18:54:33.135Z,17.73
2023-02-19T18:57:04.564Z,23.73
2023-02-19T18:59:36.422Z,23.43
2023-02-19T19:02:05.227Z,23.88
2023-02-19T19:04:32.185Z,30.98
2023-02-19T19:06:59.087Z,27.38
2023-02-19T19:09:25.948Z,27.50
2023-02-19T19:11:52.876Z,23.13
2023-02-19T19:14:19.950Z,29.17
2023-02-19T19:16:46.840Z,21.80
2023-02-19T19:19:14.792Z,18.58
2023-02-19T19:21:41.676Z,17.67
2023-02-19T19:24:09.282Z,11.27
2023-02-19T19:26:36.168Z,14.10
2023-02-19T19:29:03.128Z,12.75
2023-02-19T19:31:35.775Z,9.98
2023-02-19T19:34:03.428Z,10.98
2023-02-19T19:36:30.373Z,12.77
2023-02-19T19:38:57.415Z,15.15
2023-02-19T19:41:24.311Z,12.20
2023-02-19T19:43:51.210Z,14.65
2023-02-19T19:46:21.572Z,19.60
2023-02-19T19:48:50.723Z,31.17
2023-02-19T19:51:17.841Z,28.10
2023-02-19T19:53:48.109Z,25.50
2023-02-19T19:56:16.024Z,24.63
2023-02-19T19:58:42.915Z,19.65
2023-02-19T20:01:09.997Z,20.92
2023-02-19T20:03:39.780Z,18.25
2023-02-19T20:06:06.988Z,23.67
2023-02-19T20:08:33.765Z,22.77
2023-02-19T20:11:00.593Z,18.67
2023-02-19T20:13:30.584Z,28.55
2023-02-19T20:15:58.004Z,16.65
2023-02-19T20:18:26.122Z,21.17
2023-02-19T20:20:53.069Z,16.45
2023-02-19T20:23:20.564Z,13.30
2023-02-19T20:25:47.360Z,16.45
2023-02-19T20:28:14.273Z,11.32
2023-02-19T20:30:42.193Z,12.70
2023-02-19T20:33:09.568Z,17.95
2023-02-19T20:35:36.468Z,15.07
2023-02-19T20:38:03.288Z,13.05
2023-02-19T20:40:31.514Z,9.50
2023-02-19T20:43:00.910Z,11.35
2023-02-19T20:45:28.631Z,10.38
2023-02-19T20:47:55.488Z,10.43
2023-02-19T20:50:23.508Z,10.15
2023-02-19T20:52:50.384Z,11.93
2023-02-19T20:55:17.313Z,10.73
2023-02-19T20:57:44.154Z,12.32
2023-02-19T21:00:11.596Z,14.68
2023-02-19T21:02:38.515Z,13.13
2023-02-19T21:05:05.685Z,13.95
2023-02-19T21:07:32.556Z,15.43
2023-02-19T21:09:59.445Z,13.82
2023-02-19T21:12:26.336Z,14.45
2023-02-19T21:14:53.277Z,20.65
2023-02-19T21:17:20.248Z,19.50
2023-02-19T21:19:50.050Z,17.00
2023-02-19T21:22:17.115Z,14.43
2023-02-19T21:24:44.724Z,13.90
2023-02-19T21:27:11.728Z,16.00
2023-02-19T21:29:38.587Z,20.30
2023-02-19T21:32:05.868Z,16.27
2023-02-19T21:34:33.008Z,18.17
2023-02-19T21:37:00.107Z,18.65
2023-02-19T21:39:28.273Z,14.02
2023-02-19T21:41:55.156Z,15.23
2023-02-19T21:44:22.006Z,13.02
2023-02-19T21:46:49.102Z,13.68
2023-02-19T21:49:16.909Z,16.48
2023-02-19T21:51:45.300Z,14.55
2023-02-19T21:54:22.081Z,13.90
2023-02-19T21:56:49.032Z,17.03
2023-02-19T21:59:16.275Z,17.70
2023-02-19T22:01:43.573Z,13.00
2023-02-19T22:04:14.788Z,13.65
2023-02-19T22:06:42.552Z,17.97
2023-02-19T22:09:11.091Z,14.20
2023-02-19T22:11:38.363Z,16.35
2023-02-19T22:14:05.227Z,14.13
2023-02-19T22:16:32.184Z,12.47
2023-02-19T22:19:00.069Z,12.60
2023-02-19T22:21:32.457Z,16.03
2023-02-19T22:24:00.701Z,14.18
2023-02-19T22:26:33.988Z,13.00
2023-02-19T22:29:06.049Z,15.03
2023-02-19T22:31:33.662Z,14.13
2023-02-19T22:34:00.558Z,16.67
2023-02-19T22:36:31.174Z,13.37
2023-02-19T22:38:58.096Z,12.67
2023-02-19T22:41:25.536Z,13.63
2023-02-19T22:43:55.669Z,11.53
2023-02-19T22:46:25.011Z,14.17
2023-02-19T22:51:21.108Z,12.13
2023-02-19T22:56:20.707Z,10.63
2023-02-19T22:58:47.685Z,12.18
2023-02-19T23:01:15.092Z,8.37
2023-02-19T23:03:52.825Z,11.50
2023-02-19T23:06:31.823Z,12.03
2023-02-19T23:09:05.480Z,9.70
2023-02-19T23:11:34.756Z,11.30
2023-02-19T23:14:02.166Z,14.98
2023-02-19T23:16:29.436Z,15.50
2023-02-19T23:18:56.276Z,12.03
2023-02-19T23:21:23.394Z,13.50
2023-02-19T23:23:50.292Z,12.07
2023-02-19T23:26:17.509Z,12.63
2023-02-19T23:28:44.864Z,10.17
2023-02-19T23:31:12.556Z,12.10
2023-02-19T23:33:39.528Z,12.50
2023-02-19T23:36:07.031Z,9.73
2023-02-19T23:38:34.130Z,11.67
2023-02-19T23:41:01.430Z,13.30
2023-02-19T23:43:28.818Z,11.53
2023-02-19T23:45:55.910Z,12.33
2023-02-19T23:48:22.766Z,11.10
2023-02-19T23:50:49.629Z,11.37
2023-02-19T23:53:16.555Z,13.43
2023-02-19T23:55:43.376Z,11.90
2023-02-19T23:58:10.273Z,11.50
